This is the latest recevied weather packets stored in our database for station/object M0XDC. If no packets are shown the sender has not sent any weather packets the latest 10 day(s).
| Time | Temp. | Humidity | Pressure | Rain* | Wind** | Luminosity | Snow |
|---|---|---|---|---|---|---|---|
| 1787557723 | 16.67° C | 69% | 1019.4 hPa | 0 mm | - | - | - |
| 1787555923 | 14.44° C | 77% | 1019.7 hPa | 0 mm | - | - | - |
| 1787554123 | 13.33° C | 79% | 1020.1 hPa | 0 mm | - | - | - |
| 1787552323 | 12.22° C | 81% | 1020.2 hPa | 0 mm | - | - | - |
| 1787550523 | 10.56° C | 87% | 1020.4 hPa | 0 mm | - | - | - |
| 1787548723 | 10° C | 87% | 1020.7 hPa | 0 mm | - | - | - |
| 1787546923 | 10° C | 87% | 1020.5 hPa | 0 mm | - | - | - |
| 1787545123 | 10° C | 87% | 1020.8 hPa | 0 mm | - | - | - |
| 1787543323 | 10° C | 88% | 1021 hPa | 0 mm | - | - | - |
| 1787541523 | 10° C | 87% | 1021.4 hPa | 0 mm | - | - | - |
| 1787539723 | 10.56° C | 87% | 1021.3 hPa | 0 mm | - | - | - |
| 1787537923 | 10.56° C | 86% | 1021.2 hPa | 0 mm | - | - | - |
| 1787536123 | 10.56° C | 85% | 1021.8 hPa | 0 mm | - | - | - |
| 1787534323 | 10.56° C | 85% | 1021.4 hPa | 0 mm | - | - | - |
| 1787532523 | 11.11° C | 84% | 1021.8 hPa | 0 mm | - | - | - |
| 1787530723 | 11.67° C | 82% | 1021.8 hPa | 0 mm | - | - | - |
| 1787528923 | 12.22° C | 80% | 1022.1 hPa | 0 mm | - | - | - |
| 1787527123 | 13.33° C | 77% | 1022.2 hPa | 0 mm | - | - | - |
| 1787525323 | 13.33° C | 76% | 1022.6 hPa | 0 mm | - | - | - |
| 1787523523 | 13.89° C | 75% | 1022.7 hPa | 0 mm | - | - | - |
| 1787521723 | 14.44° C | 74% | 1023 hPa | 0 mm | - | - | - |
| 1787519923 | 15° C | 73% | 1022.7 hPa | 0 mm | - | - | - |
| 1787518123 | 15.56° C | 75% | 1022.7 hPa | 0 mm | - | - | - |
| 1787516323 | 16.11° C | 73% | 1022.6 hPa | 0 mm | - | - | - |
| 1787514523 | 16.67° C | 72% | 1022.6 hPa | 0 mm | - | - | - |
* Rain latest hour (hover to see other rain measurements)
** Current wind speed in m/s (hover to see current wind gust speed)